sensor_id;sensor_type;location;lat;lon;timestamp;temperature;humidity
49579;DHT22;35483;50.828;3.228;2022-12-17T00:00:25;-2.70;99.90
49579;DHT22;35483;50.828;3.228;2022-12-17T00:03:10;-2.70;99.90
49579;DHT22;35483;50.828;3.228;2022-12-17T00:05:54;-2.70;99.90
49579;DHT22;35483;50.828;3.228;2022-12-17T00:08:39;-2.70;99.90
49579;DHT22;35483;50.828;3.228;2022-12-17T00:11:23;-2.70;99.90
49579;DHT22;35483;50.828;3.228;2022-12-17T00:14:07;-2.70;99.90
49579;DHT22;35483;50.828;3.228;2022-12-17T00:16:52;-2.70;99.90
49579;DHT22;35483;50.828;3.228;2022-12-17T00:19:36;-2.70;99.90
49579;DHT22;35483;50.828;3.228;2022-12-17T00:22:20;-2.70;99.90
49579;DHT22;35483;50.828;3.228;2022-12-17T00:25:05;-2.80;99.90
49579;DHT22;35483;50.828;3.228;2022-12-17T00:27:49;-2.80;99.90
49579;DHT22;35483;50.828;3.228;2022-12-17T00:30:33;-2.80;99.90
49579;DHT22;35483;50.828;3.228;2022-12-17T00:33:18;-2.80;99.90
49579;DHT22;35483;50.828;3.228;2022-12-17T00:36:02;-2.80;99.90
49579;DHT22;35483;50.828;3.228;2022-12-17T00:38:46;-2.90;99.90
49579;DHT22;35483;50.828;3.228;2022-12-17T00:41:31;-2.90;99.90
49579;DHT22;35483;50.828;3.228;2022-12-17T00:44:15;-2.90;99.90
49579;DHT22;35483;50.828;3.228;2022-12-17T00:47:00;-2.90;99.90
49579;DHT22;35483;50.828;3.228;2022-12-17T00:49:44;-2.90;99.90
49579;DHT22;35483;50.828;3.228;2022-12-17T00:52:28;-2.90;99.90
49579;DHT22;35483;50.828;3.228;2022-12-17T00:55:13;-2.90;99.90
49579;DHT22;35483;50.828;3.228;2022-12-17T00:57:57;-2.90;99.90
49579;DHT22;35483;50.828;3.228;2022-12-17T01:00:42;-2.90;99.90
49579;DHT22;35483;50.828;3.228;2022-12-17T01:03:26;-2.90;99.90
49579;DHT22;35483;50.828;3.228;2022-12-17T01:06:11;-2.90;99.90
49579;DHT22;35483;50.828;3.228;2022-12-17T01:09:06;-2.90;99.90
49579;DHT22;35483;50.828;3.228;2022-12-17T01:11:51;-2.90;99.90
49579;DHT22;35483;50.828;3.228;2022-12-17T01:14:35;-2.90;99.90
49579;DHT22;35483;50.828;3.228;2022-12-17T01:17:19;-2.90;99.90
49579;DHT22;35483;50.828;3.228;2022-12-17T01:20:05;-2.90;99.90
49579;DHT22;35483;50.828;3.228;2022-12-17T01:22:50;-2.90;99.90
49579;DHT22;35483;50.828;3.228;2022-12-17T01:25:34;-2.90;99.90
49579;DHT22;35483;50.828;3.228;2022-12-17T01:28:23;-2.90;99.90
49579;DHT22;35483;50.828;3.228;2022-12-17T01:31:08;-2.90;99.90
49579;DHT22;35483;50.828;3.228;2022-12-17T01:33:52;-3.00;99.90
49579;DHT22;35483;50.828;3.228;2022-12-17T01:36:36;-3.00;99.90
49579;DHT22;35483;50.828;3.228;2022-12-17T01:39:21;-3.00;99.90
49579;DHT22;35483;50.828;3.228;2022-12-17T01:42:15;-3.00;99.90
49579;DHT22;35483;50.828;3.228;2022-12-17T01:45:01;-3.00;99.90
49579;DHT22;35483;50.828;3.228;2022-12-17T01:47:59;-3.00;99.90
49579;DHT22;35483;50.828;3.228;2022-12-17T01:51:02;-3.10;99.90
49579;DHT22;35483;50.828;3.228;2022-12-17T01:53:51;-3.10;99.90
49579;DHT22;35483;50.828;3.228;2022-12-17T01:56:40;-3.10;99.90
49579;DHT22;35483;50.828;3.228;2022-12-17T01:59:41;-3.20;99.90
49579;DHT22;35483;50.828;3.228;2022-12-17T02:02:26;-3.10;99.90
49579;DHT22;35483;50.828;3.228;2022-12-17T02:05:11;-3.10;99.90
49579;DHT22;35483;50.828;3.228;2022-12-17T02:08:13;-3.10;99.90
49579;DHT22;35483;50.828;3.228;2022-12-17T02:11:30;-3.10;99.90
49579;DHT22;35483;50.828;3.228;2022-12-17T02:14:32;-3.10;99.90
49579;DHT22;35483;50.828;3.228;2022-12-17T02:17:43;-3.20;99.90
49579;DHT22;35483;50.828;3.228;2022-12-17T02:20:37;-3.10;99.90
49579;DHT22;35483;50.828;3.228;2022-12-17T02:26:45;-3.10;99.90
49579;DHT22;35483;50.828;3.228;2022-12-17T02:29:34;-3.10;99.90
49579;DHT22;35483;50.828;3.228;2022-12-17T02:32:19;-3.20;99.90
49579;DHT22;35483;50.828;3.228;2022-12-17T02:35:18;-3.20;99.90
49579;DHT22;35483;50.828;3.228;2022-12-17T02:38:23;-3.20;99.90
49579;DHT22;35483;50.828;3.228;2022-12-17T02:41:12;-3.20;99.90
49579;DHT22;35483;50.828;3.228;2022-12-17T02:43:58;-3.20;99.90
49579;DHT22;35483;50.828;3.228;2022-12-17T02:46:44;-3.20;99.90
49579;DHT22;35483;50.828;3.228;2022-12-17T02:49:30;-3.30;99.90
49579;DHT22;35483;50.828;3.228;2022-12-17T02:52:17;-3.30;99.90
49579;DHT22;35483;50.828;3.228;2022-12-17T02:55:03;-3.30;99.90
49579;DHT22;35483;50.828;3.228;2022-12-17T02:57:48;-3.30;99.90
49579;DHT22;35483;50.828;3.228;2022-12-17T03:00:32;-3.30;99.90
49579;DHT22;35483;50.828;3.228;2022-12-17T03:03:16;-3.20;99.90
49579;DHT22;35483;50.828;3.228;2022-12-17T03:06:01;-3.20;99.90
49579;DHT22;35483;50.828;3.228;2022-12-17T03:08:45;-3.30;99.90
49579;DHT22;35483;50.828;3.228;2022-12-17T03:11:29;-3.30;99.90
49579;DHT22;35483;50.828;3.228;2022-12-17T03:14:14;-3.30;99.90
49579;DHT22;35483;50.828;3.228;2022-12-17T03:16:59;-3.30;99.90
49579;DHT22;35483;50.828;3.228;2022-12-17T03:19:43;-3.30;99.90
49579;DHT22;35483;50.828;3.228;2022-12-17T03:22:28;-3.30;99.90
49579;DHT22;35483;50.828;3.228;2022-12-17T03:25:14;-3.40;99.90
49579;DHT22;35483;50.828;3.228;2022-12-17T03:28:07;-3.30;99.90
49579;DHT22;35483;50.828;3.228;2022-12-17T03:30:51;-3.30;99.90
49579;DHT22;35483;50.828;3.228;2022-12-17T03:33:36;-3.20;99.90
49579;DHT22;35483;50.828;3.228;2022-12-17T03:36:20;-3.30;99.90
49579;DHT22;35483;50.828;3.228;2022-12-17T03:39:05;-3.30;99.90
49579;DHT22;35483;50.828;3.228;2022-12-17T03:41:49;-3.30;99.90
49579;DHT22;35483;50.828;3.228;2022-12-17T03:44:34;-3.30;99.90
49579;DHT22;35483;50.828;3.228;2022-12-17T03:47:18;-3.30;99.90
49579;DHT22;35483;50.828;3.228;2022-12-17T03:50:03;-3.30;99.90
49579;DHT22;35483;50.828;3.228;2022-12-17T03:52:48;-3.30;99.90
49579;DHT22;35483;50.828;3.228;2022-12-17T03:55:32;-3.30;99.90
49579;DHT22;35483;50.828;3.228;2022-12-17T03:58:16;-3.30;99.90
49579;DHT22;35483;50.828;3.228;2022-12-17T04:01:01;-3.40;99.90
49579;DHT22;35483;50.828;3.228;2022-12-17T04:03:45;-3.40;99.90
49579;DHT22;35483;50.828;3.228;2022-12-17T04:06:30;-3.40;99.90
49579;DHT22;35483;50.828;3.228;2022-12-17T04:09:15;-3.40;99.90
49579;DHT22;35483;50.828;3.228;2022-12-17T04:12:00;-3.40;99.90
49579;DHT22;35483;50.828;3.228;2022-12-17T04:14:45;-3.40;99.90
49579;DHT22;35483;50.828;3.228;2022-12-17T04:17:29;-3.40;99.90
49579;DHT22;35483;50.828;3.228;2022-12-17T04:20:14;-3.40;99.90
49579;DHT22;35483;50.828;3.228;2022-12-17T04:22:58;-3.40;99.90
49579;DHT22;35483;50.828;3.228;2022-12-17T04:25:43;-3.40;99.90
49579;DHT22;35483;50.828;3.228;2022-12-17T04:28:27;-3.50;99.90
49579;DHT22;35483;50.828;3.228;2022-12-17T04:31:11;-3.50;99.90
49579;DHT22;35483;50.828;3.228;2022-12-17T04:33:56;-3.50;99.90
49579;DHT22;35483;50.828;3.228;2022-12-17T04:36:40;-3.50;99.90
49579;DHT22;35483;50.828;3.228;2022-12-17T04:39:25;-3.40;99.90
49579;DHT22;35483;50.828;3.228;2022-12-17T04:42:09;-3.40;99.90
49579;DHT22;35483;50.828;3.228;2022-12-17T04:44:53;-3.40;99.90
49579;DHT22;35483;50.828;3.228;2022-12-17T04:47:37;-3.50;99.90
49579;DHT22;35483;50.828;3.228;2022-12-17T04:50:22;-3.50;99.90
49579;DHT22;35483;50.828;3.228;2022-12-17T04:53:07;-3.50;99.90
49579;DHT22;35483;50.828;3.228;2022-12-17T04:55:53;-3.50;99.90
49579;DHT22;35483;50.828;3.228;2022-12-17T04:58:38;-3.50;99.90
49579;DHT22;35483;50.828;3.228;2022-12-17T05:01:22;-3.50;99.90
49579;DHT22;35483;50.828;3.228;2022-12-17T05:04:07;-3.50;99.90
49579;DHT22;35483;50.828;3.228;2022-12-17T05:06:51;-3.50;99.90
49579;DHT22;35483;50.828;3.228;2022-12-17T05:09:35;-3.50;99.90
49579;DHT22;35483;50.828;3.228;2022-12-17T05:12:19;-3.50;99.90
49579;DHT22;35483;50.828;3.228;2022-12-17T05:15:04;-3.40;99.90
49579;DHT22;35483;50.828;3.228;2022-12-17T05:17:49;-3.40;99.90
49579;DHT22;35483;50.828;3.228;2022-12-17T05:20:33;-3.40;99.90
49579;DHT22;35483;50.828;3.228;2022-12-17T05:23:17;-3.40;99.90
49579;DHT22;35483;50.828;3.228;2022-12-17T05:28:51;-3.30;99.90
49579;DHT22;35483;50.828;3.228;2022-12-17T05:31:35;-3.30;99.90
49579;DHT22;35483;50.828;3.228;2022-12-17T05:34:19;-3.40;99.90
49579;DHT22;35483;50.828;3.228;2022-12-17T05:37:04;-3.30;99.90
49579;DHT22;35483;50.828;3.228;2022-12-17T05:39:48;-3.30;99.90
49579;DHT22;35483;50.828;3.228;2022-12-17T05:42:32;-3.30;99.90
49579;DHT22;35483;50.828;3.228;2022-12-17T05:45:16;-3.30;99.90
49579;DHT22;35483;50.828;3.228;2022-12-17T05:48:01;-3.30;99.90
49579;DHT22;35483;50.828;3.228;2022-12-17T05:50:49;-3.20;99.90
49579;DHT22;35483;50.828;3.228;2022-12-17T05:53:34;-3.20;99.90
49579;DHT22;35483;50.828;3.228;2022-12-17T05:56:19;-3.20;99.90
49579;DHT22;35483;50.828;3.228;2022-12-17T05:59:04;-3.10;99.90
49579;DHT22;35483;50.828;3.228;2022-12-17T06:01:49;-3.10;99.90
49579;DHT22;35483;50.828;3.228;2022-12-17T06:04:33;-3.00;99.90
49579;DHT22;35483;50.828;3.228;2022-12-17T06:07:17;-3.10;99.90
49579;DHT22;35483;50.828;3.228;2022-12-17T06:10:03;-3.10;99.90
49579;DHT22;35483;50.828;3.228;2022-12-17T06:12:54;-3.10;99.90
49579;DHT22;35483;50.828;3.228;2022-12-17T06:15:39;-3.20;99.90
49579;DHT22;35483;50.828;3.228;2022-12-17T06:18:24;-3.20;99.90
49579;DHT22;35483;50.828;3.228;2022-12-17T06:21:08;-3.20;99.90
49579;DHT22;35483;50.828;3.228;2022-12-17T06:23:52;-3.20;99.90
49579;DHT22;35483;50.828;3.228;2022-12-17T06:26:37;-3.10;99.90
49579;DHT22;35483;50.828;3.228;2022-12-17T06:29:21;-3.10;99.90
49579;DHT22;35483;50.828;3.228;2022-12-17T06:32:06;-3.10;99.90
49579;DHT22;35483;50.828;3.228;2022-12-17T06:34:50;-3.10;99.90
49579;DHT22;35483;50.828;3.228;2022-12-17T06:37:35;-3.20;99.90
49579;DHT22;35483;50.828;3.228;2022-12-17T06:40:19;-3.20;99.90
49579;DHT22;35483;50.828;3.228;2022-12-17T06:43:03;-3.20;99.90
49579;DHT22;35483;50.828;3.228;2022-12-17T06:45:47;-3.20;99.90
49579;DHT22;35483;50.828;3.228;2022-12-17T06:48:32;-3.20;99.90
49579;DHT22;35483;50.828;3.228;2022-12-17T06:51:17;-3.20;99.90
49579;DHT22;35483;50.828;3.228;2022-12-17T06:54:01;-3.20;99.90
49579;DHT22;35483;50.828;3.228;2022-12-17T06:56:45;-3.30;99.90
49579;DHT22;35483;50.828;3.228;2022-12-17T06:59:30;-3.30;99.90
49579;DHT22;35483;50.828;3.228;2022-12-17T07:02:14;-3.20;99.90
49579;DHT22;35483;50.828;3.228;2022-12-17T07:04:59;-3.20;99.90
49579;DHT22;35483;50.828;3.228;2022-12-17T07:07:43;-3.20;99.90
49579;DHT22;35483;50.828;3.228;2022-12-17T07:10:27;-3.20;99.90
49579;DHT22;35483;50.828;3.228;2022-12-17T07:13:11;-3.20;99.90
49579;DHT22;35483;50.828;3.228;2022-12-17T07:15:55;-3.20;99.90
49579;DHT22;35483;50.828;3.228;2022-12-17T07:18:40;-3.20;99.90
49579;DHT22;35483;50.828;3.228;2022-12-17T07:21:24;-3.20;99.90
49579;DHT22;35483;50.828;3.228;2022-12-17T07:24:09;-3.20;99.90
49579;DHT22;35483;50.828;3.228;2022-12-17T07:26:53;-3.20;99.90
49579;DHT22;35483;50.828;3.228;2022-12-17T07:29:38;-3.20;99.90
49579;DHT22;35483;50.828;3.228;2022-12-17T07:32:22;-3.20;99.90
49579;DHT22;35483;50.828;3.228;2022-12-17T07:35:07;-3.30;99.90
49579;DHT22;35483;50.828;3.228;2022-12-17T07:38:02;-3.30;99.90
49579;DHT22;35483;50.828;3.228;2022-12-17T07:40:46;-3.20;99.90
49579;DHT22;35483;50.828;3.228;2022-12-17T07:43:31;-3.30;99.90
49579;DHT22;35483;50.828;3.228;2022-12-17T07:46:16;-3.30;99.90
49579;DHT22;35483;50.828;3.228;2022-12-17T07:49:01;-3.30;99.90
49579;DHT22;35483;50.828;3.228;2022-12-17T07:51:45;-3.30;99.90
49579;DHT22;35483;50.828;3.228;2022-12-17T07:54:29;-3.30;99.90
49579;DHT22;35483;50.828;3.228;2022-12-17T07:57:13;-3.30;99.90
49579;DHT22;35483;50.828;3.228;2022-12-17T07:59:59;-3.30;99.90
49579;DHT22;35483;50.828;3.228;2022-12-17T08:02:43;-3.30;99.90
49579;DHT22;35483;50.828;3.228;2022-12-17T08:05:27;-3.30;99.90
49579;DHT22;35483;50.828;3.228;2022-12-17T08:08:13;-3.30;99.90
49579;DHT22;35483;50.828;3.228;2022-12-17T08:10:57;-3.20;99.90
49579;DHT22;35483;50.828;3.228;2022-12-17T08:13:42;-3.20;99.90
49579;DHT22;35483;50.828;3.228;2022-12-17T08:16:27;-3.20;99.90
49579;DHT22;35483;50.828;3.228;2022-12-17T08:19:12;-3.20;99.90
49579;DHT22;35483;50.828;3.228;2022-12-17T08:21:56;-3.20;99.90
49579;DHT22;35483;50.828;3.228;2022-12-17T08:24:41;-3.20;99.90
49579;DHT22;35483;50.828;3.228;2022-12-17T08:27:25;-3.20;99.90
49579;DHT22;35483;50.828;3.228;2022-12-17T08:30:10;-3.20;99.90
49579;DHT22;35483;50.828;3.228;2022-12-17T08:32:55;-3.10;99.90
49579;DHT22;35483;50.828;3.228;2022-12-17T08:35:53;-3.10;99.90
49579;DHT22;35483;50.828;3.228;2022-12-17T08:38:38;-3.00;99.90
49579;DHT22;35483;50.828;3.228;2022-12-17T08:41:22;-3.00;99.90
49579;DHT22;35483;50.828;3.228;2022-12-17T08:44:08;-2.90;99.90
49579;DHT22;35483;50.828;3.228;2022-12-17T08:46:52;-2.90;99.90
49579;DHT22;35483;50.828;3.228;2022-12-17T08:49:36;-2.90;99.90
49579;DHT22;35483;50.828;3.228;2022-12-17T08:52:21;-2.90;99.90
49579;DHT22;35483;50.828;3.228;2022-12-17T08:55:06;-2.90;99.90
49579;DHT22;35483;50.828;3.228;2022-12-17T08:57:57;-2.80;99.90
49579;DHT22;35483;50.828;3.228;2022-12-17T09:00:42;-2.80;99.90
49579;DHT22;35483;50.828;3.228;2022-12-17T09:03:27;-2.80;99.90
49579;DHT22;35483;50.828;3.228;2022-12-17T09:06:11;-2.80;99.90
49579;DHT22;35483;50.828;3.228;2022-12-17T09:08:55;-2.80;99.90
49579;DHT22;35483;50.828;3.228;2022-12-17T09:11:40;-2.70;99.90
49579;DHT22;35483;50.828;3.228;2022-12-17T09:14:25;-2.70;99.90
49579;DHT22;35483;50.828;3.228;2022-12-17T09:17:10;-2.60;99.90
49579;DHT22;35483;50.828;3.228;2022-12-17T09:19:54;-2.60;99.90
49579;DHT22;35483;50.828;3.228;2022-12-17T09:22:38;-2.60;99.90
49579;DHT22;35483;50.828;3.228;2022-12-17T09:25:23;-2.60;99.90
49579;DHT22;35483;50.828;3.228;2022-12-17T09:28:08;-2.50;99.90
49579;DHT22;35483;50.828;3.228;2022-12-17T09:30:57;-2.40;99.90
49579;DHT22;35483;50.828;3.228;2022-12-17T09:33:42;-2.30;99.90
49579;DHT22;35483;50.828;3.228;2022-12-17T09:36:27;-2.20;99.90
49579;DHT22;35483;50.828;3.228;2022-12-17T09:39:11;-2.10;99.90
49579;DHT22;35483;50.828;3.228;2022-12-17T09:42:17;-2.10;99.90
49579;DHT22;35483;50.828;3.228;2022-12-17T09:48:11;-2.00;99.90
49579;DHT22;35483;50.828;3.228;2022-12-17T09:50:59;-2.00;99.90
49579;DHT22;35483;50.828;3.228;2022-12-17T09:53:49;-2.00;99.90
49579;DHT22;35483;50.828;3.228;2022-12-17T09:56:35;-2.00;99.90
49579;DHT22;35483;50.828;3.228;2022-12-17T09:59:26;-1.90;99.90
49579;DHT22;35483;50.828;3.228;2022-12-17T10:02:17;-1.90;99.90
49579;DHT22;35483;50.828;3.228;2022-12-17T10:05:04;-1.90;99.90
49579;DHT22;35483;50.828;3.228;2022-12-17T10:07:50;-1.80;99.90
49579;DHT22;35483;50.828;3.228;2022-12-17T10:10:35;-1.80;99.90
49579;DHT22;35483;50.828;3.228;2022-12-17T10:13:23;-1.70;99.90
49579;DHT22;35483;50.828;3.228;2022-12-17T10:16:29;-1.70;99.90
49579;DHT22;35483;50.828;3.228;2022-12-17T10:19:33;-1.70;99.90
49579;DHT22;35483;50.828;3.228;2022-12-17T10:22:20;-1.60;99.90
49579;DHT22;35483;50.828;3.228;2022-12-17T10:28:10;-1.50;99.90
49579;DHT22;35483;50.828;3.228;2022-12-17T10:30:55;-1.50;99.90
49579;DHT22;35483;50.828;3.228;2022-12-17T10:33:40;-1.40;99.90
49579;DHT22;35483;50.828;3.228;2022-12-17T10:36:26;-1.40;99.90
49579;DHT22;35483;50.828;3.228;2022-12-17T10:39:23;-1.40;99.90
49579;DHT22;35483;50.828;3.228;2022-12-17T10:42:28;-1.40;99.90
49579;DHT22;35483;50.828;3.228;2022-12-17T10:45:22;-1.30;99.90
49579;DHT22;35483;50.828;3.228;2022-12-17T10:48:26;-1.30;99.90
49579;DHT22;35483;50.828;3.228;2022-12-17T10:51:37;-1.20;99.90
49579;DHT22;35483;50.828;3.228;2022-12-17T10:54:41;-1.20;99.90
49579;DHT22;35483;50.828;3.228;2022-12-17T10:57:29;-1.10;99.90
49579;DHT22;35483;50.828;3.228;2022-12-17T11:00:24;-1.10;99.90
49579;DHT22;35483;50.828;3.228;2022-12-17T11:03:22;-1.00;99.90
49579;DHT22;35483;50.828;3.228;2022-12-17T11:06:07;-0.90;99.90
49579;DHT22;35483;50.828;3.228;2022-12-17T11:08:53;-0.90;99.90
49579;DHT22;35483;50.828;3.228;2022-12-17T11:11:37;-0.80;99.90
49579;DHT22;35483;50.828;3.228;2022-12-17T11:14:22;-0.80;99.90
49579;DHT22;35483;50.828;3.228;2022-12-17T11:17:14;-0.70;99.90
49579;DHT22;35483;50.828;3.228;2022-12-17T11:20:24;-0.60;99.90
49579;DHT22;35483;50.828;3.228;2022-12-17T11:23:17;-0.50;99.90
49579;DHT22;35483;50.828;3.228;2022-12-17T11:26:11;-0.50;99.90
49579;DHT22;35483;50.828;3.228;2022-12-17T11:28:58;-0.40;99.90
49579;DHT22;35483;50.828;3.228;2022-12-17T11:31:53;-0.40;99.90
49579;DHT22;35483;50.828;3.228;2022-12-17T11:37:55;-0.20;99.90
49579;DHT22;35483;50.828;3.228;2022-12-17T11:40:50;-0.20;99.90
49579;DHT22;35483;50.828;3.228;2022-12-17T11:52:48;0.00;99.90
49579;DHT22;35483;50.828;3.228;2022-12-17T11:58:49;0.10;99.90
49579;DHT22;35483;50.828;3.228;2022-12-17T12:01:48;0.00;99.90
49579;DHT22;35483;50.828;3.228;2022-12-17T12:05:13;0.10;99.90
49579;DHT22;35483;50.828;3.228;2022-12-17T12:08:15;0.10;99.90
49579;DHT22;35483;50.828;3.228;2022-12-17T12:12:02;0.10;99.90
49579;DHT22;35483;50.828;3.228;2022-12-17T12:18:14;0.10;99.90
49579;DHT22;35483;50.828;3.228;2022-12-17T12:30:21;0.20;99.90
49579;DHT22;35483;50.828;3.228;2022-12-17T12:36:08;0.30;99.90
49579;DHT22;35483;50.828;3.228;2022-12-17T12:38:55;0.30;99.90
49579;DHT22;35483;50.828;3.228;2022-12-17T12:47:42;0.30;99.90
49579;DHT22;35483;50.828;3.228;2022-12-17T12:50:59;0.30;99.90
49579;DHT22;35483;50.828;3.228;2022-12-17T12:53:59;0.30;99.90
49579;DHT22;35483;50.828;3.228;2022-12-17T12:56:43;0.20;99.90
49579;DHT22;35483;50.828;3.228;2022-12-17T12:59:30;0.10;99.90
49579;DHT22;35483;50.828;3.228;2022-12-17T13:02:28;0.10;99.90
49579;DHT22;35483;50.828;3.228;2022-12-17T13:05:38;0.10;99.90
49579;DHT22;35483;50.828;3.228;2022-12-17T13:08:26;0.10;99.90
49579;DHT22;35483;50.828;3.228;2022-12-17T13:10:53;0.00;99.90
49579;DHT22;35483;50.828;3.228;2022-12-17T13:13:33;-0.10;99.90
49579;DHT22;35483;50.828;3.228;2022-12-17T13:16:46;-0.20;99.90
49579;DHT22;35483;50.828;3.228;2022-12-17T13:19:36;-0.30;99.90
49579;DHT22;35483;50.828;3.228;2022-12-17T13:24:44;-0.50;99.90
49579;DHT22;35483;50.828;3.228;2022-12-17T13:33:21;-0.50;99.90
49579;DHT22;35483;50.828;3.228;2022-12-17T13:41:13;-0.60;99.90
49579;DHT22;35483;50.828;3.228;2022-12-17T13:43:48;-0.60;99.90
49579;DHT22;35483;50.828;3.228;2022-12-17T13:46:18;-0.60;99.90
49579;DHT22;35483;50.828;3.228;2022-12-17T13:48:54;-0.70;99.90
49579;DHT22;35483;50.828;3.228;2022-12-17T13:51:21;-0.70;99.90
49579;DHT22;35483;50.828;3.228;2022-12-17T13:53:55;-0.70;99.90
49579;DHT22;35483;50.828;3.228;2022-12-17T13:56:28;-0.70;99.90
49579;DHT22;35483;50.828;3.228;2022-12-17T13:58:55;-0.70;99.90
49579;DHT22;35483;50.828;3.228;2022-12-17T14:01:22;-0.80;99.90
49579;DHT22;35483;50.828;3.228;2022-12-17T14:03:55;-0.80;99.90
49579;DHT22;35483;50.828;3.228;2022-12-17T14:06:23;-0.90;99.90
49579;DHT22;35483;50.828;3.228;2022-12-17T14:08:52;-0.90;99.90
49579;DHT22;35483;50.828;3.228;2022-12-17T14:11:19;-0.80;99.90
49579;DHT22;35483;50.828;3.228;2022-12-17T14:14:11;-0.80;99.90
49579;DHT22;35483;50.828;3.228;2022-12-17T14:16:41;-0.70;99.90
49579;DHT22;35483;50.828;3.228;2022-12-17T14:19:08;-0.60;99.90
49579;DHT22;35483;50.828;3.228;2022-12-17T14:21:35;-0.60;99.90
49579;DHT22;35483;50.828;3.228;2022-12-17T14:24:02;-0.60;99.90
49579;DHT22;35483;50.828;3.228;2022-12-17T14:26:29;-0.60;99.90
49579;DHT22;35483;50.828;3.228;2022-12-17T14:28:55;-0.60;99.90
49579;DHT22;35483;50.828;3.228;2022-12-17T14:31:26;-0.50;99.90
49579;DHT22;35483;50.828;3.228;2022-12-17T14:34:19;-0.40;99.90
49579;DHT22;35483;50.828;3.228;2022-12-17T14:36:45;-0.40;99.90
49579;DHT22;35483;50.828;3.228;2022-12-17T14:39:18;-0.40;99.90
49579;DHT22;35483;50.828;3.228;2022-12-17T14:41:45;-0.40;99.90
49579;DHT22;35483;50.828;3.228;2022-12-17T14:44:30;-0.30;99.90
49579;DHT22;35483;50.828;3.228;2022-12-17T14:47:30;-0.30;99.90
49579;DHT22;35483;50.828;3.228;2022-12-17T14:52:39;-0.40;99.90
49579;DHT22;35483;50.828;3.228;2022-12-17T14:55:38;-0.40;99.90
49579;DHT22;35483;50.828;3.228;2022-12-17T14:58:19;-0.30;99.90
49579;DHT22;35483;50.828;3.228;2022-12-17T15:01:04;-0.40;99.90
49579;DHT22;35483;50.828;3.228;2022-12-17T15:03:33;-0.40;99.90
49579;DHT22;35483;50.828;3.228;2022-12-17T15:06:04;-0.40;99.90
49579;DHT22;35483;50.828;3.228;2022-12-17T15:08:33;-0.40;99.90
49579;DHT22;35483;50.828;3.228;2022-12-17T15:11:00;-0.40;99.90
49579;DHT22;35483;50.828;3.228;2022-12-17T15:13:26;-0.40;99.90
49579;DHT22;35483;50.828;3.228;2022-12-17T15:15:52;-0.40;99.90
49579;DHT22;35483;50.828;3.228;2022-12-17T15:18:18;-0.40;99.90
49579;DHT22;35483;50.828;3.228;2022-12-17T15:20:44;-0.50;99.90
49579;DHT22;35483;50.828;3.228;2022-12-17T15:23:16;-0.40;99.90
49579;DHT22;35483;50.828;3.228;2022-12-17T15:25:47;-0.40;99.90
49579;DHT22;35483;50.828;3.228;2022-12-17T15:28:13;-0.40;99.90
49579;DHT22;35483;50.828;3.228;2022-12-17T15:30:39;-0.40;99.90
49579;DHT22;35483;50.828;3.228;2022-12-17T15:33:06;-0.50;99.90
49579;DHT22;35483;50.828;3.228;2022-12-17T15:35:33;-0.40;99.90
49579;DHT22;35483;50.828;3.228;2022-12-17T15:37:59;-0.50;99.90
49579;DHT22;35483;50.828;3.228;2022-12-17T15:40:25;-0.40;99.90
49579;DHT22;35483;50.828;3.228;2022-12-17T15:42:51;-0.40;99.90
49579;DHT22;35483;50.828;3.228;2022-12-17T15:45:44;-0.40;99.90
49579;DHT22;35483;50.828;3.228;2022-12-17T15:48:12;-0.40;99.90
49579;DHT22;35483;50.828;3.228;2022-12-17T15:50:38;-0.40;99.90
49579;DHT22;35483;50.828;3.228;2022-12-17T15:53:04;-0.50;99.90
49579;DHT22;35483;50.828;3.228;2022-12-17T15:55:31;-0.50;99.90
49579;DHT22;35483;50.828;3.228;2022-12-17T15:57:57;-0.40;99.90
49579;DHT22;35483;50.828;3.228;2022-12-17T16:00:23;-0.40;99.90
49579;DHT22;35483;50.828;3.228;2022-12-17T16:02:50;-0.40;99.90
49579;DHT22;35483;50.828;3.228;2022-12-17T16:05:16;-0.40;99.90
49579;DHT22;35483;50.828;3.228;2022-12-17T16:07:42;-0.40;99.90
49579;DHT22;35483;50.828;3.228;2022-12-17T16:10:10;-0.30;99.90
49579;DHT22;35483;50.828;3.228;2022-12-17T16:12:36;-0.40;99.90
49579;DHT22;35483;50.828;3.228;2022-12-17T16:15:03;-0.40;99.90
49579;DHT22;35483;50.828;3.228;2022-12-17T16:17:29;-0.40;99.90
49579;DHT22;35483;50.828;3.228;2022-12-17T16:19:55;-0.40;99.90
49579;DHT22;35483;50.828;3.228;2022-12-17T16:22:21;-0.40;99.90
49579;DHT22;35483;50.828;3.228;2022-12-17T16:24:47;-0.30;99.90
49579;DHT22;35483;50.828;3.228;2022-12-17T16:27:14;-0.30;99.90
49579;DHT22;35483;50.828;3.228;2022-12-17T16:29:43;-0.30;99.90
49579;DHT22;35483;50.828;3.228;2022-12-17T16:32:13;-0.40;99.90
49579;DHT22;35483;50.828;3.228;2022-12-17T16:34:39;-0.40;99.90
49579;DHT22;35483;50.828;3.228;2022-12-17T16:37:05;-0.40;99.90
49579;DHT22;35483;50.828;3.228;2022-12-17T16:39:31;-0.40;99.90
49579;DHT22;35483;50.828;3.228;2022-12-17T16:41:58;-0.40;99.90
49579;DHT22;35483;50.828;3.228;2022-12-17T16:44:24;-0.40;99.90
49579;DHT22;35483;50.828;3.228;2022-12-17T16:46:50;-0.40;99.90
49579;DHT22;35483;50.828;3.228;2022-12-17T16:49:22;-0.40;99.90
49579;DHT22;35483;50.828;3.228;2022-12-17T16:51:50;-0.40;99.90
49579;DHT22;35483;50.828;3.228;2022-12-17T16:54:21;-0.50;99.90
49579;DHT22;35483;50.828;3.228;2022-12-17T16:56:49;-0.40;99.90
49579;DHT22;35483;50.828;3.228;2022-12-17T16:59:16;-0.50;99.90
49579;DHT22;35483;50.828;3.228;2022-12-17T17:01:45;-0.50;99.90
49579;DHT22;35483;50.828;3.228;2022-12-17T17:04:12;-0.60;99.90
49579;DHT22;35483;50.828;3.228;2022-12-17T17:06:39;-0.60;99.90
49579;DHT22;35483;50.828;3.228;2022-12-17T17:09:06;-0.60;99.90
49579;DHT22;35483;50.828;3.228;2022-12-17T17:11:33;-0.70;99.90
49579;DHT22;35483;50.828;3.228;2022-12-17T17:14:00;-0.70;99.90
49579;DHT22;35483;50.828;3.228;2022-12-17T17:16:26;-0.80;99.90
49579;DHT22;35483;50.828;3.228;2022-12-17T17:18:52;-0.80;99.90
49579;DHT22;35483;50.828;3.228;2022-12-17T17:21:23;-0.80;99.90
49579;DHT22;35483;50.828;3.228;2022-12-17T17:23:59;-0.90;99.90
49579;DHT22;35483;50.828;3.228;2022-12-17T17:26:27;-0.90;99.90
49579;DHT22;35483;50.828;3.228;2022-12-17T17:28:54;-1.00;99.90
49579;DHT22;35483;50.828;3.228;2022-12-17T17:31:20;-1.00;99.90
49579;DHT22;35483;50.828;3.228;2022-12-17T17:33:48;-1.00;99.90
49579;DHT22;35483;50.828;3.228;2022-12-17T17:36:21;-1.00;99.90
49579;DHT22;35483;50.828;3.228;2022-12-17T17:38:50;-1.00;99.90
49579;DHT22;35483;50.828;3.228;2022-12-17T17:41:19;-1.00;99.90
49579;DHT22;35483;50.828;3.228;2022-12-17T17:43:46;-1.00;99.90
49579;DHT22;35483;50.828;3.228;2022-12-17T17:46:16;-0.90;99.90
49579;DHT22;35483;50.828;3.228;2022-12-17T17:48:44;-0.90;99.90
49579;DHT22;35483;50.828;3.228;2022-12-17T17:51:19;-0.90;99.90
49579;DHT22;35483;50.828;3.228;2022-12-17T17:53:47;-0.90;99.90
49579;DHT22;35483;50.828;3.228;2022-12-17T17:56:15;-0.80;99.90
49579;DHT22;35483;50.828;3.228;2022-12-17T17:58:50;-0.80;99.90
49579;DHT22;35483;50.828;3.228;2022-12-17T18:01:19;-0.60;99.90
49579;DHT22;35483;50.828;3.228;2022-12-17T18:03:46;-0.60;99.90
49579;DHT22;35483;50.828;3.228;2022-12-17T18:06:12;-0.60;99.90
49579;DHT22;35483;50.828;3.228;2022-12-17T18:08:39;-0.70;99.90
49579;DHT22;35483;50.828;3.228;2022-12-17T18:11:09;-0.70;99.90
49579;DHT22;35483;50.828;3.228;2022-12-17T18:13:35;-0.70;99.90